Time;durP1;ratioP1;P1;durP2;ratioP2;P2;SDS_P1;SDS_P2;PMS_P1;PMS_P2;Temp;Humidity;BMP_temperature;BMP_pressure;BME280_temperature;BME280_humidity;BME280_pressure;Samples;Min_cycle;Max_cycle;Signal;HPM_P1;HPM_P2
2022/12/14 00:00:57;;;;;;;47.97;23.55;;;;;;;1.56;78.31;99452.44;5014700;28;20061;-72
2022/12/14 00:03:23;;;;;;;48.45;25.67;;;;;;;1.51;78.96;99450.53;5014542;28;20519;-72
2022/12/14 00:05:48;;;;;;;56.22;29.33;;;;;;;1.54;78.85;99458.25;5006859;28;20061;-72
2022/12/14 00:08:15;;;;;;;55.00;30.33;;;;;;;1.43;79.93;99445.53;5026346;28;20030;-71
2022/12/14 00:10:42;;;;;;;54.10;26.55;;;;;;;1.44;81.16;99450.78;4994984;28;20036;-72
2022/12/14 00:13:09;;;;;;;51.60;25.02;;;;;;;1.29;81.47;99440.56;4994867;28;20496;-71
2022/12/14 00:15:35;;;;;;;38.42;20.25;;;;;;;1.24;81.74;99449.66;5004187;28;20100;-72
2022/12/14 00:18:01;;;;;;;27.65;14.90;;;;;;;1.01;80.10;99439.97;5014443;28;20025;-72
2022/12/14 00:20:27;;;;;;;26.02;14.57;;;;;;;0.92;79.69;99441.63;5013621;28;20038;-71
2022/12/14 00:22:56;;;;;;;24.70;14.13;;;;;;;1.01;79.40;99447.41;5006829;28;20105;-71
2022/12/14 00:25:22;;;;;;;27.33;15.85;;;;;;;0.91;78.65;99448.22;5000557;28;20168;-71
2022/12/14 00:27:48;;;;;;;24.63;15.15;;;;;;;0.67;80.34;99445.94;5014179;28;20029;-71
2022/12/14 00:30:16;;;;;;;30.55;14.32;;;;;;;0.67;80.85;99452.25;5014289;28;20431;-71
2022/12/14 00:32:42;;;;;;;26.13;14.05;;;;;;;0.72;81.25;99447.84;5014050;28;20104;-72
2022/12/14 00:35:09;;;;;;;29.02;15.02;;;;;;;0.80;81.79;99445.44;5002601;28;20037;-72
2022/12/14 00:37:35;;;;;;;24.70;14.40;;;;;;;0.89;81.26;99451.25;4994448;28;20069;-72
2022/12/14 00:40:01;;;;;;;24.13;15.07;;;;;;;0.84;80.32;99456.72;5002561;28;20455;-72
2022/12/14 00:42:26;;;;;;;28.13;14.90;;;;;;;0.98;81.17;99446.03;5013149;28;20021;-71
2022/12/14 00:44:52;;;;;;;25.20;15.65;;;;;;;0.97;81.59;99452.63;5009512;28;20034;-71
2022/12/14 00:47:17;;;;;;;26.27;14.32;;;;;;;0.95;79.71;99452.09;5010970;28;20045;-72
2022/12/14 00:49:43;;;;;;;28.52;15.25;;;;;;;0.90;81.00;99450.13;5004088;28;20428;-71
2022/12/14 00:52:08;;;;;;;27.15;14.20;;;;;;;0.75;80.83;99447.34;5013818;28;20087;-72
2022/12/14 00:54:34;;;;;;;30.30;15.45;;;;;;;0.68;81.89;99442.09;5012017;28;20175;-71
2022/12/14 00:56:59;;;;;;;25.33;14.13;;;;;;;0.69;82.86;99446.50;5005375;28;20038;-71
2022/12/14 00:59:25;;;;;;;25.58;14.70;;;;;;;0.78;82.21;99453.13;5025476;28;20378;-71
2022/12/14 01:01:50;;;;;;;26.13;14.63;;;;;;;0.87;81.99;99455.34;4994103;28;20228;-71
2022/12/14 01:04:16;;;;;;;24.42;13.75;;;;;;;0.89;81.99;99445.72;5002973;28;20030;-71
2022/12/14 01:06:43;;;;;;;25.17;14.05;;;;;;;0.70;81.35;99437.13;5000024;28;20037;-71
2022/12/14 01:09:09;;;;;;;23.90;13.00;;;;;;;0.57;81.93;99438.44;4993886;28;20113;-71
2022/12/14 01:11:34;;;;;;;25.67;15.35;;;;;;;0.59;81.86;99439.00;5026335;28;20022;-72
2022/12/14 01:14:00;;;;;;;25.17;13.50;;;;;;;0.54;81.87;99442.59;5005040;28;20030;-72
2022/12/14 01:16:26;;;;;;;26.27;13.82;;;;;;;0.71;82.15;99444.28;5030861;28;20132;-72
2022/12/14 01:18:51;;;;;;;25.98;12.98;;;;;;;0.81;82.07;99437.97;5006195;28;20374;-71
2022/12/14 01:21:20;;;;;;;22.90;13.75;;;;;;;0.82;82.11;99454.25;5013302;28;20080;-72
2022/12/14 01:23:47;;;;;;;24.23;13.98;;;;;;;0.91;82.58;99453.72;5011805;28;20044;-71
2022/12/14 01:26:15;;;;;;;25.75;13.10;;;;;;;1.08;82.48;99457.06;5012976;28;20400;-72
2022/12/14 01:28:41;;;;;;;28.02;15.10;;;;;;;1.08;81.61;99454.31;5011656;28;20029;-71
2022/12/14 01:31:09;;;;;;;30.70;15.40;;;;;;;1.21;81.69;99461.25;5003943;28;20516;-72
2022/12/14 01:33:35;;;;;;;27.23;14.18;;;;;;;1.26;81.38;99458.47;4992760;28;20515;-72
2022/12/14 01:36:12;;;;;;;31.40;15.00;;;;;;;1.39;81.33;99472.81;4993653;28;20026;-72
2022/12/14 01:38:38;;;;;;;30.17;13.63;;;;;;;1.46;80.77;99464.28;4992028;28;20037;-72
2022/12/14 01:41:05;;;;;;;26.60;13.95;;;;;;;1.52;80.69;99461.25;4993411;28;20489;-72
2022/12/14 01:43:51;;;;;;;25.25;13.88;;;;;;;1.49;80.63;99456.31;4994162;28;20022;-72
2022/12/14 01:46:28;;;;;;;24.92;13.13;;;;;;;1.33;81.11;99457.41;5009174;28;20028;-72
2022/12/14 01:49:03;;;;;;;27.13;13.85;;;;;;;1.44;81.57;99453.53;4996496;28;20022;-72
2022/12/14 01:51:31;;;;;;;23.33;13.90;;;;;;;1.48;81.31;99454.66;5012726;28;20037;-72
2022/12/14 01:53:59;;;;;;;24.33;12.30;;;;;;;1.47;81.81;99455.75;5010281;28;20021;-72
2022/12/14 01:56:24;;;;;;;26.20;14.05;;;;;;;1.37;82.28;99455.75;5007747;28;20100;-72
2022/12/14 01:58:50;;;;;;;22.48;12.63;;;;;;;1.32;82.57;99456.56;4993392;28;20098;-72
2022/12/14 02:01:15;;;;;;;21.67;13.98;;;;;;;1.16;82.00;99458.47;4992952;28;20088;-72
2022/12/14 02:03:46;;;;;;;23.58;12.68;;;;;;;1.23;82.54;99453.53;4997525;28;20033;-72
2022/12/14 02:06:21;;;;;;;19.40;12.55;;;;;;;1.26;82.56;99457.63;5005736;28;20567;-72
2022/12/14 02:08:51;;;;;;;23.08;13.63;;;;;;;1.46;81.93;99464.28;5012191;28;20049;-72
2022/12/14 02:11:34;;;;;;;21.25;12.45;;;;;;;1.24;81.60;99457.94;5005646;28;20034;-72
2022/12/14 02:14:00;;;;;;;28.35;14.80;;;;;;;1.23;82.24;99464.53;4991403;28;20538;-72
2022/12/14 02:16:26;;;;;;;19.95;12.90;;;;;;;1.37;82.71;99464.00;5005147;28;20030;-71
2022/12/14 02:18:51;;;;;;;26.50;12.95;;;;;;;1.48;82.60;99468.44;5010897;28;20076;-72
2022/12/14 02:21:23;;;;;;;23.25;12.30;;;;;;;1.59;82.08;99472.00;5009604;28;20500;-72
2022/12/14 02:24:01;;;;;;;22.58;12.95;;;;;;;1.62;82.37;99467.88;4992320;28;20030;-72
2022/12/14 02:27:04;;;;;;;23.08;13.05;;;;;;;1.61;82.48;99467.03;5003697;28;20464;-72
2022/12/14 02:29:40;;;;;;;27.55;13.70;;;;;;;1.55;82.36;99457.13;5011983;28;20026;-72
2022/12/14 02:32:26;;;;;;;22.75;13.25;;;;;;;1.48;82.59;99459.31;5012081;28;20046;-72
2022/12/14 02:35:15;;;;;;;24.95;13.52;;;;;;;1.45;82.98;99459.88;5011797;28;20080;-72
2022/12/14 02:37:53;;;;;;;24.73;13.23;;;;;;;1.56;82.60;99457.94;4992497;28;20045;-72
2022/12/14 02:40:42;;;;;;;22.50;13.55;;;;;;;1.49;82.21;99460.97;4992515;28;20489;-72
2022/12/14 02:43:30;;;;;;;31.13;14.75;;;;;;;1.46;82.46;99458.78;5000751;28;20026;-72
2022/12/14 02:46:05;;;;;;;27.25;15.07;;;;;;;1.44;82.58;99463.75;5010152;28;20113;-72
2022/12/14 02:48:47;;;;;;;29.10;15.85;;;;;;;1.52;81.87;99465.97;4991871;28;20029;-72
2022/12/14 02:51:34;;;;;;;28.98;14.50;;;;;;;1.36;81.63;99460.41;4991989;28;20046;-72
2022/12/14 02:54:07;;;;;;;27.42;13.93;;;;;;;1.16;82.84;99447.44;4991993;28;20026;-72
2022/12/14 02:56:47;;;;;;;32.08;16.23;;;;;;;1.18;83.11;99444.41;4991818;28;20463;-72
2022/12/14 02:59:14;;;;;;;;;;;;;;;1.30;83.17;99446.91;4992568;28;20077;-72
2022/12/14 03:01:43;;;;;;;27.77;14.73;;;;;;;1.37;82.45;99441.97;4992639;28;20004;-71
2022/12/14 03:04:09;;;;;;;26.50;15.15;;;;;;;1.39;82.61;99431.47;4991686;28;20038;-72
2022/12/14 03:06:35;;;;;;;32.97;16.73;;;;;;;1.14;83.18;99435.88;5003151;28;20068;-71
2022/12/14 03:09:10;;;;;;;38.72;20.80;;;;;;;1.08;83.20;99434.19;5011487;28;20053;-72
2022/12/14 03:11:45;;;;;;;43.38;22.00;;;;;;;0.98;83.31;99441.34;4991814;28;20508;-72
2022/12/14 03:14:19;;;;;;;49.38;26.20;;;;;;;1.15;83.12;99459.56;5009367;28;20481;-72
2022/12/14 03:16:49;;;;;;;46.88;24.92;;;;;;;1.19;82.51;99446.88;5011128;28;20033;-72
2022/12/14 03:19:24;;;;;;;46.35;25.83;;;;;;;1.30;82.27;99466.19;5011443;28;20025;-72
2022/12/14 03:21:54;;;;;;;42.15;23.48;;;;;;;1.26;82.25;99466.75;4998588;28;20038;-72
2022/12/14 03:24:35;;;;;;;44.60;22.70;;;;;;;1.13;82.58;99461.75;5010231;28;20018;-72
2022/12/14 03:27:15;;;;;;;53.63;26.30;;;;;;;1.11;81.73;99455.72;5010731;28;20505;-72
2022/12/14 03:29:48;;;;;;;51.03;28.88;;;;;;;1.05;81.29;99449.34;5011393;28;20030;-72
2022/12/14 03:32:20;;;;;;;62.55;30.40;;;;;;;0.97;81.33;99450.72;5011625;28;20038;-72
2022/12/14 03:35:06;;;;;;;49.72;25.70;;;;;;;0.89;81.80;99447.66;5011377;28;20084;-72
2022/12/14 03:37:46;;;;;;;47.03;22.80;;;;;;;0.74;82.35;99457.50;5004980;28;20040;-72
2022/12/14 03:40:13;;;;;;;40.22;20.85;;;;;;;0.90;82.75;99455.66;5009981;28;20082;-72
2022/12/14 03:43:06;;;;;;;43.15;22.33;;;;;;;1.10;82.25;99463.13;5010128;28;20033;-72
2022/12/14 03:45:43;;;;;;;36.63;20.83;;;;;;;1.17;82.42;99460.09;5009667;28;20044;-71
2022/12/14 03:48:33;;;;;;;38.58;20.90;;;;;;;1.32;82.21;99466.75;5007940;28;20080;-72
2022/12/14 03:51:20;;;;;;;39.23;21.47;;;;;;;1.28;81.84;99472.00;4993918;28;20165;-72
2022/12/14 03:53:57;;;;;;;40.55;21.40;;;;;;;1.32;81.61;99462.06;4992485;28;20072;-72
2022/12/14 03:56:49;;;;;;;37.13;21.55;;;;;;;1.34;82.25;99448.03;5008058;28;20030;-72
2022/12/14 03:59:36;;;;;;;42.38;22.65;;;;;;;1.37;82.02;99452.97;5005293;28;20061;-72
2022/12/14 04:02:17;;;;;;;40.58;19.98;;;;;;;1.26;81.73;99452.13;5009753;28;20021;-71
2022/12/14 04:04:52;;;;;;;38.47;20.90;;;;;;;1.32;81.62;99441.94;5009737;28;20109;-72
2022/12/14 04:07:34;;;;;;;34.67;19.98;;;;;;;1.22;81.16;99443.59;4995348;28;20485;-71
2022/12/14 04:18:58;;;;;;;46.33;24.50;;;;;;;0.86;82.22;99453.69;5015175;28;20099;-71
2022/12/14 04:21:38;;;;;;;42.03;24.45;;;;;;;0.96;81.51;99451.78;5010607;28;20408;-71
2022/12/14 04:27:07;;;;;;;43.22;23.50;;;;;;;1.11;82.79;99451.00;5012961;28;20095;-71
2022/12/14 04:32:22;;;;;;;51.80;28.13;;;;;;;1.23;82.13;99453.53;5013769;28;20091;-71
2022/12/14 04:34:52;;;;;;;49.28;25.98;;;;;;;1.28;81.87;99444.44;5013236;28;20029;-71
2022/12/14 04:37:21;;;;;;;45.95;24.77;;;;;;;1.35;81.80;99449.69;4995580;28;20026;-71
2022/12/14 04:39:55;;;;;;;45.72;25.85;;;;;;;1.46;81.74;99458.78;5014176;28;20592;-71
2022/12/14 04:42:32;;;;;;;44.72;24.73;;;;;;;1.53;81.71;99457.41;5014090;28;20025;-71
2022/12/14 04:45:07;;;;;;;45.60;26.20;;;;;;;1.52;82.19;99466.78;5012795;28;20021;-71
2022/12/14 04:47:40;;;;;;;43.90;24.73;;;;;;;1.44;82.88;99475.56;5012825;28;20029;-71
2022/12/14 04:50:11;;;;;;;47.53;26.17;;;;;;;1.35;82.75;99477.25;4994803;28;20050;-71
2022/12/14 04:52:46;;;;;;;50.80;27.05;;;;;;;0.91;84.87;99479.34;4994364;28;20488;-71
2022/12/14 04:55:30;;;;;;;47.58;25.75;;;;;;;1.26;85.05;99475.00;4994349;28;20073;-71
2022/12/14 04:58:00;;;;;;;51.17;28.58;;;;;;;1.37;84.35;99470.34;5009257;28;20030;-71
2022/12/14 05:00:31;;;;;;;48.92;25.25;;;;;;;1.31;84.11;99462.34;5013619;28;20041;-71
2022/12/14 05:03:21;;;;;;;55.17;23.17;;;;;;;1.28;83.63;99466.50;5013707;28;20068;-71
2022/12/14 05:06:27;;;;;;;38.97;21.23;;;;;;;1.29;83.86;99472.81;5012415;28;20038;-71
2022/12/14 05:09:14;;;;;;;37.30;20.95;;;;;;;1.38;83.62;99487.72;4991178;28;20050;-71
2022/12/14 05:12:06;;;;;;;29.75;17.40;;;;;;;1.26;81.80;99474.16;5013380;28;20034;-71
2022/12/14 05:14:50;;;;;;;32.75;16.73;;;;;;;1.15;80.31;99478.84;5013506;28;20041;-71
2022/12/14 05:17:16;;;;;;;29.75;15.63;;;;;;;0.97;79.11;99458.97;5011866;28;20034;-71
2022/12/14 05:19:47;;;;;;;26.65;14.98;;;;;;;0.90;79.13;99469.41;5009211;28;20041;-71
2022/12/14 05:22:12;;;;;;;27.63;15.68;;;;;;;0.97;80.30;99478.25;5011802;28;20041;-72
2022/12/14 05:24:38;;;;;;;28.65;16.48;;;;;;;1.07;80.66;99476.63;5013046;28;20108;-71
2022/12/14 05:27:03;;;;;;;29.15;15.50;;;;;;;1.12;79.22;99474.69;5011869;28;20036;-71
2022/12/14 05:29:29;;;;;;;25.42;15.00;;;;;;;1.15;79.60;99483.50;5012791;28;20108;-72
2022/12/14 05:31:55;;;;;;;25.88;15.57;;;;;;;1.19;79.20;99474.44;5013058;28;20026;-71
2022/12/14 05:34:20;;;;;;;29.85;16.15;;;;;;;1.11;80.02;99477.75;5009038;28;20033;-72
2022/12/14 05:36:46;;;;;;;29.13;16.10;;;;;;;1.36;80.25;99490.72;5008439;28;20030;-71
2022/12/14 05:39:12;;;;;;;26.65;16.02;;;;;;;1.44;79.58;99489.34;5013099;28;20064;-73
2022/12/14 05:41:37;;;;;;;25.23;14.70;;;;;;;1.29;79.52;99489.34;5012935;28;20044;-71
2022/12/14 05:44:03;;;;;;;29.20;15.13;;;;;;;1.31;80.00;99484.38;5005486;28;21661;-73
2022/12/14 05:46:28;;;;;;;22.92;14.50;;;;;;;1.22;80.77;99476.66;5010387;28;20025;-71
2022/12/14 05:48:54;;;;;;;23.35;14.50;;;;;;;1.28;81.33;99483.03;5003019;28;20512;-70
2022/12/14 05:51:19;;;;;;;27.75;15.48;;;;;;;1.30;81.73;99485.47;5011970;28;20064;-70
2022/12/14 05:53:45;;;;;;;30.10;16.13;;;;;;;1.33;81.04;99480.25;5008844;28;20026;-69
2022/12/14 05:56:11;;;;;;;28.65;15.93;;;;;;;1.45;80.60;99491.03;5001643;28;20021;-70
2022/12/14 05:58:37;;;;;;;24.30;14.70;;;;;;;1.58;81.30;99502.63;5008447;28;20426;-67
2022/12/14 06:01:05;;;;;;;29.40;14.73;;;;;;;1.61;81.80;99510.34;5044964;28;20558;-68
2022/12/14 06:03:31;;;;;;;22.80;13.90;;;;;;;1.43;81.22;99507.00;5006113;28;20463;-69
2022/12/14 06:06:01;;;;;;;26.35;15.27;;;;;;;1.34;80.94;99505.91;4997036;28;20033;-69
2022/12/14 06:08:31;;;;;;;29.45;16.70;;;;;;;1.37;81.34;99505.34;5005413;28;20092;-69
2022/12/14 06:11:07;;;;;;;24.88;15.43;;;;;;;1.21;81.99;99488.78;5010043;28;20522;-71
2022/12/14 06:13:34;;;;;;;46.65;26.00;;;;;;;1.29;82.20;99494.84;5012429;28;20445;-69
2022/12/14 06:16:16;;;;;;;50.53;29.13;;;;;;;1.13;81.43;99511.38;5010438;28;20061;-69
2022/12/14 06:18:43;;;;;;;46.08;24.65;;;;;;;1.18;80.75;99522.38;4998402;28;20030;-70
2022/12/14 06:21:09;;;;;;;35.40;18.80;;;;;;;1.18;79.67;99505.84;4995233;28;20026;-68
2022/12/14 06:23:34;;;;;;;28.65;15.52;;;;;;;1.16;79.86;99516.31;5000235;28;20022;-70
2022/12/14 06:26:00;;;;;;;35.47;16.60;;;;;;;1.17;79.68;99522.69;5008084;28;20485;-67
2022/12/14 06:28:25;;;;;;;30.55;15.70;;;;;;;1.13;79.79;99533.41;5007380;28;20168;-67
2022/12/14 06:30:51;;;;;;;30.00;16.05;;;;;;;1.26;79.58;99532.03;5007636;28;20050;-67
2022/12/14 06:33:16;;;;;;;28.35;15.60;;;;;;;1.33;79.89;99529.06;4999364;28;20523;-66
2022/12/14 06:35:43;;;;;;;23.15;13.85;;;;;;;1.25;79.88;99541.41;4992069;28;20030;-65
2022/12/14 06:38:09;;;;;;;31.23;15.30;;;;;;;1.22;78.37;99540.06;5007720;28;20021;-67
2022/12/14 06:40:35;;;;;;;53.10;27.00;;;;;;;1.24;77.55;99535.09;5007577;28;20458;-66
2022/12/14 06:43:00;;;;;;;29.88;17.45;;;;;;;1.36;76.91;99545.03;5002503;28;20034;-67
2022/12/14 06:45:27;;;;;;;37.10;22.05;;;;;;;1.21;76.47;99529.28;5006868;28;20040;-67
2022/12/14 06:47:53;;;;;;;31.67;19.08;;;;;;;1.14;77.52;99537.81;5006377;28;20113;-66
2022/12/14 06:50:18;;;;;;;24.95;14.57;;;;;;;1.25;76.59;99538.66;4998142;28;20124;-66
2022/12/14 06:52:48;;;;;;;31.15;15.68;;;;;;;1.39;76.29;99534.31;4988890;28;20528;-66
2022/12/14 06:55:13;;;;;;;27.17;15.80;;;;;;;1.32;75.16;99539.25;5001127;28;20037;-66
2022/12/14 06:57:39;;;;;;;30.95;16.20;;;;;;;1.34;75.85;99530.72;5001033;28;20049;-68
2022/12/14 07:00:05;;;;;;;36.70;19.08;;;;;;;1.16;76.51;99527.34;5003557;28;20041;-67
2022/12/14 07:02:30;;;;;;;31.73;18.30;;;;;;;1.05;77.27;99520.16;5003438;28;20425;-67
2022/12/14 07:04:56;;;;;;;25.95;14.95;;;;;;;1.15;76.43;99528.44;5003204;28;20022;-68
2022/12/14 07:07:21;;;;;;;27.45;15.50;;;;;;;1.11;75.75;99528.16;5007690;28;20029;-66
2022/12/14 07:09:47;;;;;;;28.45;16.45;;;;;;;1.13;76.33;99525.13;5001631;28;20088;-67
2022/12/14 07:12:13;;;;;;;35.60;16.02;;;;;;;1.23;76.23;99535.34;4994469;28;20030;-65
2022/12/14 07:14:38;;;;;;;26.92;16.67;;;;;;;1.23;76.11;99544.47;5008592;28;20022;-65
2022/12/14 07:17:04;;;;;;;41.13;21.00;;;;;;;1.26;77.61;99551.34;4995407;28;20037;-68
2022/12/14 07:19:29;;;;;;;33.90;17.60;;;;;;;1.14;74.83;99545.22;4993552;28;20019;-67
2022/12/14 07:21:55;;;;;;;35.65;18.98;;;;;;;1.20;74.82;99550.50;4999949;28;20034;-67
2022/12/14 07:24:20;;;;;;;48.22;22.52;;;;;;;1.17;75.62;99548.28;5008304;28;20409;-67
2022/12/14 07:26:45;;;;;;;32.85;17.38;;;;;;;1.19;74.79;99532.31;5007312;28;20041;-67
2022/12/14 07:29:13;;;;;;;39.28;20.63;;;;;;;1.23;75.33;99536.19;4997650;28;20029;-66
2022/12/14 07:31:39;;;;;;;34.17;17.60;;;;;;;1.24;75.50;99525.97;4988804;28;20555;-67
2022/12/14 07:34:04;;;;;;;28.42;16.50;;;;;;;1.38;74.15;99537.31;5004528;28;20037;-68
2022/12/14 07:36:31;;;;;;;32.60;17.35;;;;;;;1.33;73.14;99523.56;4999565;28;20049;-68
2022/12/14 07:38:57;;;;;;;28.88;17.42;;;;;;;1.43;73.47;99548.34;4997753;28;20041;-67
2022/12/14 07:41:28;;;;;;;27.33;16.05;;;;;;;1.49;71.67;99550.03;5000264;28;20451;-64
2022/12/14 07:43:54;;;;;;;28.42;17.65;;;;;;;1.53;72.38;99526.31;4999933;28;20112;-68
2022/12/14 07:46:22;;;;;;;27.25;16.67;;;;;;;1.42;73.79;99526.59;4990451;28;20451;-69
2022/12/14 07:48:50;;;;;;;26.52;15.57;;;;;;;1.46;74.18;99542.31;4995400;28;20038;-68
2022/12/14 07:51:19;;;;;;;29.27;16.13;;;;;;;1.44;72.79;99538.97;4992543;28;20033;-69
2022/12/14 07:53:45;;;;;;;34.00;19.17;;;;;;;1.51;73.47;99553.34;5034941;28;20034;-68
2022/12/14 07:56:14;;;;;;;30.33;17.52;;;;;;;1.66;73.05;99557.22;4993528;28;20022;-67
2022/12/14 07:58:39;;;;;;;30.20;17.52;;;;;;;1.63;72.77;99561.38;4991769;28;20057;-69
2022/12/14 08:01:16;;;;;;;36.13;18.38;;;;;;;1.65;72.27;99552.81;5004533;28;20527;-68
2022/12/14 08:03:45;;;;;;;50.38;21.48;;;;;;;1.76;72.29;99561.94;5001394;28;20038;-68
2022/12/14 08:06:12;;;;;;;41.17;18.27;;;;;;;1.79;71.58;99573.22;4993795;28;20030;-68
2022/12/14 08:08:39;;;;;;;35.55;19.58;;;;;;;2.06;71.84;99574.94;5000359;28;20022;-69
2022/12/14 08:11:06;;;;;;;36.25;23.25;;;;;;;2.08;72.10;99560.84;5007938;28;20026;-68
2022/12/14 08:13:32;;;;;;;36.90;20.67;;;;;;;2.05;71.47;99569.69;4996744;28;20040;-69
2022/12/14 08:16:03;;;;;;;39.47;20.77;;;;;;;2.21;71.24;99576.84;5012106;28;20025;-68
2022/12/14 08:18:29;;;;;;;42.15;21.63;;;;;;;2.28;71.34;99581.28;4997799;28;20046;-69
2022/12/14 08:20:54;;;;;;;44.72;21.25;;;;;;;2.34;71.02;99567.19;5003894;28;20497;-69
2022/12/14 08:23:20;;;;;;;43.53;21.83;;;;;;;1.92;71.50;99565.53;5005610;28;20053;-69
2022/12/14 08:25:53;;;;;;;38.40;24.05;;;;;;;1.47;72.12;99574.28;5003282;28;20408;-68
2022/12/14 08:28:18;;;;;;;35.42;20.88;;;;;;;1.98;70.93;99578.22;5006798;28;20034;-69
2022/12/14 08:30:44;;;;;;;45.60;25.40;;;;;;;2.26;72.58;99570.50;5007369;28;20041;-68
2022/12/14 08:33:09;;;;;;;43.13;22.75;;;;;;;2.27;68.82;99574.91;5006470;28;20018;-69
2022/12/14 08:35:35;;;;;;;43.10;22.10;;;;;;;2.38;66.50;99572.97;5005842;28;20026;-68
2022/12/14 08:38:01;;;;;;;42.20;24.15;;;;;;;2.28;67.55;99575.75;5010377;28;20029;-68
2022/12/14 08:40:27;;;;;;;46.47;24.70;;;;;;;2.49;66.95;99573.78;5008052;28;20511;-68
2022/12/14 08:42:52;;;;;;;38.50;20.20;;;;;;;2.57;67.45;99575.16;5005180;28;20089;-69
2022/12/14 08:45:18;;;;;;;42.70;21.83;;;;;;;2.61;67.28;99576.25;5007054;28;20026;-68
2022/12/14 08:47:45;;;;;;;23.55;13.10;;;;;;;2.55;61.77;99574.59;5011914;28;20476;-69
2022/12/14 08:50:11;;;;;;;24.83;12.05;;;;;;;2.48;59.53;99555.56;5011694;28;20046;-68
2022/12/14 08:52:37;;;;;;;25.23;14.13;;;;;;;2.50;62.85;99550.59;5004997;28;20060;-68
2022/12/14 08:55:04;;;;;;;48.25;25.50;;;;;;;2.54;66.53;99559.97;5006470;28;20037;-68
2022/12/14 08:57:29;;;;;;;21.80;14.02;;;;;;;2.45;59.53;99559.69;5005614;28;20555;-68
2022/12/14 08:59:54;;;;;;;25.73;12.27;;;;;;;2.65;59.77;99564.38;5007822;28;20017;-68
2022/12/14 09:02:20;;;;;;;19.60;12.00;;;;;;;2.74;60.00;99569.31;5007359;28;20026;-68
2022/12/14 09:04:45;;;;;;;26.00;13.73;;;;;;;2.53;60.91;99561.91;5004928;28;20044;-69
2022/12/14 09:07:11;;;;;;;18.70;11.73;;;;;;;2.54;60.18;99557.22;5001472;28;20099;-69
2022/12/14 09:09:36;;;;;;;18.45;12.00;;;;;;;2.53;60.66;99547.25;5005709;28;20031;-68
2022/12/14 09:12:05;;;;;;;16.17;9.95;;;;;;;2.44;59.12;99535.97;5007119;28;20113;-68
2022/12/14 09:14:34;;;;;;;17.23;8.85;;;;;;;2.58;57.09;99541.75;5027726;28;20085;-68
2022/12/14 09:17:00;;;;;;;14.93;9.75;;;;;;;2.62;56.85;99545.59;5007734;28;20120;-68
2022/12/14 09:19:27;;;;;;;15.50;8.52;;;;;;;2.73;55.26;99548.31;5012198;28;20105;-68
2022/12/14 09:21:53;;;;;;;18.80;10.07;;;;;;;2.75;55.21;99540.56;5004968;28;20037;-69
2022/12/14 09:24:19;;;;;;;19.33;9.90;;;;;;;2.86;55.63;99549.69;4992069;28;20398;-68
2022/12/14 09:26:45;;;;;;;22.95;11.60;;;;;;;2.85;56.32;99551.59;5027116;28;20053;-67
2022/12/14 09:29:14;;;;;;;22.85;11.85;;;;;;;2.85;55.58;99532.25;4993327;28;20402;-68
2022/12/14 09:31:40;;;;;;;15.50;9.27;;;;;;;2.90;54.44;99523.97;4993309;28;20109;-68
2022/12/14 09:34:06;;;;;;;15.30;9.52;;;;;;;2.92;55.49;99523.66;5001023;28;20112;-68
2022/12/14 09:36:32;;;;;;;20.65;11.18;;;;;;;3.03;56.24;99505.13;5002011;28;20030;-68
2022/12/14 09:38:58;;;;;;;19.10;10.48;;;;;;;3.22;55.65;99511.63;5001333;28;20117;-69
2022/12/14 09:41:31;;;;;;;13.52;8.75;;;;;;;3.29;53.83;99516.03;5009604;28;20026;-68
2022/12/14 09:44:38;;;;;;;65.80;33.72;;;;;;;3.42;53.52;99498.81;5003323;28;20034;-67
2022/12/14 09:47:16;;;;;;;17.65;11.88;;;;;;;3.89;52.41;99501.25;4964184;28;20046;-68
2022/12/14 09:49:55;;;;;;;15.50;8.93;;;;;;;3.89;51.02;99501.25;4995287;28;20039;-68
2022/12/14 09:52:36;;;;;;;17.33;9.30;;;;;;;3.88;52.01;99508.69;5003778;28;20408;-68
2022/12/14 09:55:19;;;;;;;14.50;9.27;;;;;;;3.87;54.60;99492.41;4991410;28;20041;-67
2022/12/14 09:57:48;;;;;;;16.17;9.98;;;;;;;3.81;54.60;99493.56;5006329;28;20041;-68
2022/12/14 10:00:18;;;;;;;15.83;10.33;;;;;;;3.86;54.24;99494.34;5009647;28;20080;-67
2022/12/14 10:03:07;;;;;;;13.20;8.82;;;;;;;3.98;52.51;99491.19;5035977;28;20026;-64
2022/12/14 10:06:00;;;;;;;16.55;9.90;;;;;;;4.05;51.41;99496.41;4994593;28;20053;-65
2022/12/14 10:08:52;;;;;;;16.58;10.45;;;;;;;3.80;52.25;99503.78;5007520;28;20038;-67
2022/12/14 10:11:29;;;;;;;15.45;10.50;;;;;;;3.77;52.14;99499.66;4992448;28;20428;-66
2022/12/14 10:14:03;;;;;;;18.70;10.30;;;;;;;3.70;53.69;99492.81;4999469;28;20112;-68
2022/12/14 10:16:33;;;;;;;21.02;11.65;;;;;;;3.76;54.32;99486.13;4991099;28;20030;-65
2022/12/14 10:19:17;;;;;;;18.83;10.55;;;;;;;3.77;53.79;99491.38;4998371;28;20117;-67
2022/12/14 10:22:04;;;;;;;17.30;10.98;;;;;;;4.04;53.25;99492.78;5002542;28;20025;-67
2022/12/14 10:24:35;;;;;;;17.80;10.13;;;;;;;3.85;53.03;99484.38;4999731;28;20042;-67
2022/12/14 10:27:01;;;;;;;17.48;10.57;;;;;;;3.95;53.62;99489.00;5000465;28;20102;-67
2022/12/14 10:29:39;;;;;;;17.45;11.05;;;;;;;4.01;54.19;99484.25;5010288;28;20033;-65
2022/12/14 10:32:10;;;;;;;20.92;11.52;;;;;;;3.90;53.67;99480.75;5004123;28;20506;-66
2022/12/14 10:34:39;;;;;;;23.15;13.60;;;;;;;3.84;56.16;99476.34;5004819;28;20077;-67
2022/12/14 10:37:37;;;;;;;20.10;12.02;;;;;;;3.98;54.85;99460.75;4999791;28;20137;-67
2022/12/14 10:40:08;;;;;;;24.65;12.07;;;;;;;4.30;56.85;99461.28;5000160;28;20054;-67
2022/12/14 10:42:49;;;;;;;21.92;12.82;;;;;;;4.04;53.99;99453.19;5006930;28;20088;-67
2022/12/14 10:45:56;;;;;;;33.47;12.73;;;;;;;4.01;54.72;99446.31;5007660;28;20553;-66
2022/12/14 10:48:53;;;;;;;21.30;12.30;;;;;;;4.11;54.06;99439.84;4975463;28;20048;-67
2022/12/14 10:51:32;;;;;;;22.35;12.88;;;;;;;4.14;55.87;99433.72;5003655;28;20042;-67
2022/12/14 10:54:16;;;;;;;22.55;13.68;;;;;;;4.22;55.13;99441.41;5004760;28;20053;-67
2022/12/14 10:56:42;;;;;;;26.20;14.18;;;;;;;4.36;54.94;99432.38;5004591;28;20402;-66
2022/12/14 10:59:19;;;;;;;24.70;12.70;;;;;;;4.40;53.70;99422.34;5005623;28;20021;-68
2022/12/14 11:01:47;;;;;;;21.52;13.05;;;;;;;4.54;53.66;99410.59;4995130;28;20033;-68
2022/12/14 11:04:32;;;;;;;25.10;14.18;;;;;;;4.50;54.17;99410.34;5003718;28;20058;-68
2022/12/14 11:07:01;;;;;;;20.52;12.35;;;;;;;4.48;53.65;99412.59;5002403;28;20068;-67
2022/12/14 11:09:27;;;;;;;20.58;12.32;;;;;;;4.45;54.13;99424.25;5004582;28;20209;-67
2022/12/14 11:12:04;;;;;;;18.58;11.00;;;;;;;4.61;54.17;99422.97;5007977;28;20044;-67
2022/12/14 11:14:30;;;;;;;20.63;12.02;;;;;;;4.78;55.16;99427.16;4999665;28;20386;-68
2022/12/14 11:16:56;;;;;;;18.75;11.38;;;;;;;4.83;53.87;99417.97;5005280;28;20520;-67
2022/12/14 11:19:24;;;;;;;24.50;12.25;;;;;;;4.62;52.25;99407.16;5008545;28;20026;-67
2022/12/14 11:22:03;;;;;;;24.50;11.45;;;;;;;4.64;52.99;99410.44;5001304;28;20477;-68
2022/12/14 11:24:29;;;;;;;19.67;12.20;;;;;;;4.39;52.84;99404.09;5030730;28;20057;-67
2022/12/14 11:26:59;;;;;;;21.85;12.38;;;;;;;4.35;53.19;99391.97;5006473;28;20060;-67
2022/12/14 11:29:35;;;;;;;21.48;13.18;;;;;;;4.25;54.02;99409.53;5012809;28;20563;-67
2022/12/14 11:32:03;;;;;;;21.63;12.80;;;;;;;4.43;52.03;99402.41;5009055;28;20029;-67
2022/12/14 11:34:39;;;;;;;22.70;12.50;;;;;;;4.29;52.35;99395.94;5002880;28;20030;-68
2022/12/14 11:37:12;;;;;;;24.45;13.10;;;;;;;4.46;53.45;99381.56;5013394;28;20041;-67
2022/12/14 11:39:41;;;;;;;18.90;12.52;;;;;;;4.71;54.22;99393.47;5008507;28;20018;-64
2022/12/14 11:42:15;;;;;;;20.55;12.75;;;;;;;4.93;53.36;99379.03;5011421;28;20022;-62
2022/12/14 11:44:41;;;;;;;17.65;11.35;;;;;;;4.64;51.32;99375.25;5010041;28;20018;-65
2022/12/14 11:47:15;;;;;;;27.20;14.15;;;;;;;4.72;51.51;99379.31;5008839;28;20033;-67
2022/12/14 11:49:56;;;;;;;18.60;12.90;;;;;;;4.69;53.12;99387.38;5009702;28;20065;-65
2022/12/14 11:52:39;;;;;;;19.17;11.90;;;;;;;4.54;53.24;99378.16;5006087;28;20038;-64
2022/12/14 11:55:14;;;;;;;26.95;13.95;;;;;;;4.33;54.10;99372.06;5011636;28;20071;-64
2022/12/14 11:57:57;;;;;;;22.25;12.05;;;;;;;4.45;53.40;99369.69;5011845;28;20424;-63
2022/12/14 12:00:29;;;;;;;18.70;12.63;;;;;;;4.21;54.64;99369.69;5010124;28;20034;-64